createdAt,value
2019-03-09T00:03:52.768Z,85.60
2019-03-09T00:08:57.678Z,85.90
2019-03-09T00:14:02.491Z,86.50
2019-03-09T00:19:08.226Z,87.20
2019-03-09T00:24:23.273Z,87.70
2019-03-09T00:29:32.667Z,88.20
2019-03-09T00:34:38.258Z,88.90
2019-03-09T00:39:44.338Z,89.10
2019-03-09T00:44:49.164Z,89.40
2019-03-09T00:49:53.987Z,89.40
2019-03-09T00:54:58.828Z,89.50
2019-03-09T01:00:04.041Z,89.40
2019-03-09T01:05:09.680Z,89.50
2019-03-09T01:10:15.914Z,89.80
2019-03-09T01:15:20.725Z,90.00
2019-03-09T01:20:25.485Z,90.20
2019-03-09T01:25:30.324Z,90.30
2019-03-09T01:30:35.150Z,90.40
2019-03-09T01:35:40.063Z,90.30
2019-03-09T01:40:45.147Z,90.20
2019-03-09T01:45:49.972Z,90.20
2019-03-09T01:50:54.811Z,90.10
2019-03-09T01:55:59.646Z,90.20
2019-03-09T02:01:04.483Z,90.30
2019-03-09T02:06:09.610Z,90.40
2019-03-09T02:11:14.855Z,90.60
2019-03-09T02:16:19.990Z,90.90
2019-03-09T02:21:25.143Z,91.00
2019-03-09T02:26:30.402Z,91.20
2019-03-09T02:31:35.620Z,91.30
2019-03-09T02:36:40.697Z,91.40
2019-03-09T02:41:46.156Z,91.60
2019-03-09T02:46:51.193Z,91.80
2019-03-09T02:51:56.407Z,92.20
2019-03-09T02:57:01.458Z,92.40
2019-03-09T03:02:10.973Z,92.40
2019-03-09T03:07:15.806Z,92.60
2019-03-09T03:12:20.631Z,93.30
2019-03-09T03:17:25.454Z,93.50
2019-03-09T03:22:30.290Z,93.60
2019-03-09T03:27:35.116Z,93.70
2019-03-09T03:32:39.947Z,93.70
2019-03-09T03:37:44.716Z,94.10
2019-03-09T03:42:49.661Z,94.40
2019-03-09T03:47:54.495Z,94.50
2019-03-09T03:52:59.317Z,94.90
2019-03-09T03:58:04.258Z,95.00
2019-03-09T04:03:09.189Z,95.30
2019-03-09T04:08:14.311Z,95.50
2019-03-09T04:13:19.076Z,95.50
2019-03-09T04:18:23.918Z,95.50
2019-03-09T04:23:28.743Z,95.90
2019-03-09T04:28:33.568Z,95.90
2019-03-09T04:33:38.402Z,96.00
2019-03-09T04:38:43.225Z,96.10
2019-03-09T04:43:48.239Z,96.10
2019-03-09T04:48:53.009Z,96.50
2019-03-09T04:53:57.693Z,96.50
2019-03-09T04:59:02.450Z,96.20
2019-03-09T05:04:22.310Z,96.40
2019-03-09T05:09:48.141Z,96.70
2019-03-09T05:14:52.974Z,96.80
2019-03-09T05:19:57.726Z,97.00
2019-03-09T05:25:02.543Z,97.20
2019-03-09T05:30:13.176Z,97.30
2019-03-09T05:35:17.959Z,97.40
2019-03-09T05:40:22.784Z,97.20
2019-03-09T05:45:27.667Z,97.30
2019-03-09T05:50:32.507Z,97.10
2019-03-09T05:55:37.319Z,97.10
2019-03-09T06:00:42.807Z,96.90
2019-03-09T06:05:49.043Z,96.80
2019-03-09T06:10:53.814Z,96.60
2019-03-09T06:15:58.569Z,96.40
2019-03-09T06:21:03.396Z,96.30
2019-03-09T06:26:08.222Z,96.00
2019-03-09T06:31:13.349Z,96.20
2019-03-09T06:36:26.862Z,96.40
2019-03-09T06:41:46.483Z,96.70
2019-03-09T06:46:51.340Z,96.90
2019-03-09T06:51:56.179Z,97.00
2019-03-09T06:57:00.928Z,96.90
2019-03-09T07:02:05.907Z,96.90
2019-03-09T07:07:10.750Z,96.70
2019-03-09T07:12:15.525Z,96.30
2019-03-09T07:17:20.348Z,95.70
2019-03-09T07:22:25.300Z,95.20
2019-03-09T07:27:30.130Z,94.50
2019-03-09T07:32:34.890Z,94.40
2019-03-09T07:37:39.691Z,94.00
2019-03-09T07:42:44.530Z,93.60
2019-03-09T07:47:49.525Z,93.30
2019-03-09T07:52:54.354Z,92.10
2019-03-09T07:58:03.686Z,92.30
2019-03-09T08:03:08.626Z,91.60
2019-03-09T08:08:13.497Z,90.90
2019-03-09T08:13:18.326Z,90.80
2019-03-09T08:18:23.171Z,90.30
2019-03-09T08:23:28.097Z,90.00
2019-03-09T08:28:33.003Z,89.50
2019-03-09T08:33:37.836Z,90.10
2019-03-09T08:38:42.687Z,90.30
2019-03-09T08:43:47.539Z,89.70
2019-03-09T08:48:52.748Z,87.30
2019-03-09T08:53:57.599Z,87.30
2019-03-09T08:59:02.360Z,86.30
2019-03-09T09:04:07.210Z,85.40
2019-03-09T09:09:12.070Z,85.20
2019-03-09T09:14:16.979Z,86.70
2019-03-09T09:19:21.751Z,86.40
2019-03-09T09:24:27.062Z,86.00
2019-03-09T09:29:32.031Z,84.50
2019-03-09T09:34:36.889Z,83.00
2019-03-09T09:39:41.748Z,82.20
2019-03-09T10:31:08.583Z,96.20
2019-03-09T10:36:13.518Z,96.40
2019-03-09T10:41:18.356Z,96.60
2019-03-09T10:46:23.192Z,96.40
2019-03-09T10:51:28.034Z,96.90
2019-03-09T10:56:33.219Z,97.60
2019-03-09T11:01:38.033Z,97.80
2019-03-09T11:06:42.977Z,97.60
2019-03-09T11:11:48.322Z,97.10
2019-03-09T11:16:53.188Z,97.60
2019-03-09T11:21:58.070Z,97.70
2019-03-09T11:27:02.939Z,98.00
2019-03-09T11:32:07.802Z,98.20
2019-03-09T11:37:14.767Z,98.70
2019-03-09T11:42:20.816Z,99.10
2019-03-09T11:47:26.644Z,99.10
2019-03-09T11:52:31.486Z,99.10
2019-03-09T11:57:36.315Z,99.40
2019-03-09T12:02:41.142Z,99.40
2019-03-09T12:07:45.985Z,99.30
2019-03-09T12:12:50.818Z,99.50
2019-03-09T12:17:55.645Z,99.70
2019-03-09T12:23:09.052Z,99.10
2019-03-09T12:28:13.884Z,99.10
2019-03-09T12:33:18.778Z,99.60
2019-03-09T12:38:24.690Z,98.40
2019-03-09T12:43:29.536Z,97.80
2019-03-09T12:48:34.377Z,97.50
2019-03-09T12:53:39.670Z,97.70
2019-03-09T12:58:46.152Z,96.90
2019-03-09T13:03:51.210Z,94.30
2019-03-09T13:08:56.154Z,94.60
2019-03-09T13:14:01.061Z,95.10
2019-03-09T13:19:05.929Z,95.60
2019-03-09T13:24:10.777Z,96.00
2019-03-09T13:29:15.632Z,94.00
2019-03-09T13:34:20.496Z,91.90
2019-03-09T13:39:25.450Z,89.00
2019-03-09T13:44:30.190Z,87.90
2019-03-09T13:49:35.114Z,84.30
2019-03-09T13:54:40.345Z,83.70
2019-03-09T13:59:45.743Z,81.60
2019-03-09T14:04:50.586Z,82.20
2019-03-09T14:09:55.376Z,81.40
2019-03-09T14:15:00.254Z,81.10
2019-03-09T14:20:06.897Z,80.90
2019-03-09T14:25:17.457Z,81.30
2019-03-09T14:30:22.394Z,79.70
2019-03-09T14:35:27.244Z,80.60
2019-03-09T14:40:32.175Z,80.90
2019-03-09T14:45:36.962Z,81.90
2019-03-09T14:50:41.830Z,80.90
2019-03-09T14:55:47.129Z,82.90
2019-03-09T15:00:52.038Z,82.70
2019-03-09T15:05:56.821Z,83.60
2019-03-09T15:11:01.746Z,83.70
2019-03-09T15:16:06.608Z,86.30
2019-03-09T15:21:11.483Z,87.20
2019-03-09T15:26:16.653Z,89.80
2019-03-09T15:31:22.561Z,90.60
2019-03-09T15:36:27.416Z,93.50
2019-03-09T15:41:32.375Z,94.40
2019-03-09T15:46:37.195Z,94.80
2019-03-09T15:51:42.045Z,95.30
2019-03-09T15:56:47.304Z,95.50
2019-03-09T16:01:52.168Z,95.50
2019-03-09T16:06:59.292Z,95.70
2019-03-09T16:12:04.197Z,96.00
2019-03-09T16:17:09.091Z,96.20
2019-03-09T16:22:14.086Z,96.70
2019-03-09T16:27:18.958Z,97.00
2019-03-09T16:32:23.837Z,97.20
2019-03-09T16:37:29.692Z,97.50
2019-03-09T16:42:34.652Z,97.80
2019-03-09T16:47:39.505Z,98.00
2019-03-09T16:52:44.383Z,98.00
2019-03-09T16:57:49.556Z,97.60
2019-03-09T17:02:54.432Z,96.30
2019-03-09T17:07:59.282Z,95.80
2019-03-09T17:13:04.126Z,95.00
2019-03-09T17:18:08.990Z,95.20
2019-03-09T17:23:13.851Z,95.60
2019-03-09T17:28:18.729Z,96.10
2019-03-09T17:33:23.611Z,96.40
2019-03-09T17:38:28.391Z,97.20
2019-03-09T17:43:33.563Z,97.30
2019-03-09T17:48:38.509Z,97.30
2019-03-09T17:53:43.557Z,97.80
2019-03-09T17:58:49.109Z,98.20
2019-03-09T18:03:53.932Z,98.60
2019-03-09T18:08:58.800Z,98.70
2019-03-09T18:14:07.249Z,99.00
2019-03-09T18:19:10.163Z,99.10
2019-03-09T18:24:14.941Z,98.90
2019-03-09T18:29:19.724Z,98.80
2019-03-09T18:34:30.628Z,98.90
2019-03-09T18:39:35.792Z,98.80
2019-03-09T18:44:40.977Z,98.80
2019-03-09T18:49:45.943Z,98.80
2019-03-09T18:54:51.009Z,98.50
2019-03-09T18:59:56.040Z,98.20
2019-03-09T19:05:00.902Z,97.90
2019-03-09T19:10:14.028Z,97.60
2019-03-09T19:15:19.203Z,97.10
2019-03-09T19:20:24.078Z,97.00
2019-03-09T19:25:29.032Z,96.80
2019-03-09T19:30:34.916Z,96.40
2019-03-09T19:35:39.879Z,96.30
2019-03-09T19:40:44.726Z,96.10
2019-03-09T19:45:49.573Z,95.90
2019-03-09T19:50:57.274Z,95.90
2019-03-09T19:56:02.226Z,96.00
2019-03-09T20:01:07.503Z,96.30
2019-03-09T20:06:12.314Z,96.40
2019-03-09T20:11:17.185Z,96.90
2019-03-09T20:16:22.023Z,97.00
2019-03-09T20:21:26.951Z,97.10
2019-03-09T20:26:31.766Z,97.50
2019-03-09T20:31:36.596Z,97.50
2019-03-09T20:36:41.436Z,97.60
2019-03-09T20:41:47.722Z,97.50
2019-03-09T20:46:52.574Z,98.10
2019-03-09T20:51:57.509Z,98.30
2019-03-09T20:57:02.817Z,98.30
2019-03-09T21:02:07.716Z,98.20
2019-03-09T21:07:12.553Z,98.00
2019-03-09T21:12:17.402Z,97.90
2019-03-09T21:17:22.267Z,98.00
2019-03-09T21:22:27.114Z,97.90
2019-03-09T21:27:33.303Z,97.90
2019-03-09T21:32:39.240Z,97.80
2019-03-09T21:37:44.015Z,97.90
2019-03-09T21:42:48.931Z,98.10
2019-03-09T21:47:53.887Z,98.30
2019-03-09T21:52:58.833Z,98.90
2019-03-09T21:58:03.772Z,99.40
2019-03-09T22:03:10.585Z,99.50
2019-03-09T22:08:15.544Z,99.70
2019-03-09T22:13:20.384Z,99.90
2019-03-09T22:18:25.533Z,99.90
2019-03-09T22:23:43.788Z,99.90
2019-03-09T22:28:40.700Z,99.90
2019-03-09T22:33:45.533Z,99.90
2019-03-09T22:38:50.376Z,99.90
2019-03-09T22:43:55.268Z,99.90
2019-03-09T22:49:00.111Z,99.90
2019-03-09T22:54:05.099Z,99.90
2019-03-09T22:59:09.959Z,99.90
2019-03-09T23:04:16.302Z,99.90
2019-03-09T23:09:21.359Z,99.90
2019-03-09T23:14:26.299Z,99.90
2019-03-09T23:19:31.126Z,99.90
2019-03-09T23:24:35.960Z,99.90
2019-03-09T23:29:40.894Z,99.90
2019-03-09T23:34:45.747Z,99.90
2019-03-09T23:39:50.579Z,99.90
2019-03-09T23:44:55.407Z,99.90
2019-03-09T23:50:00.326Z,99.90
2019-03-09T23:55:06.374Z,99.90
